Danville, KY

12:06 PM EDT on July 29, 2014 (GMT -0400)
Powell (KDVK) Elev 1024 ft | 37.58 °N, 84.77 °W | Change Station

Current weather conditions updated 11 minutes ago

Scattered Clouds
Scattered Clouds
64 °F
Feels Like 64 °F
N
9
Wind Variable Wind from NNW

Today is forecast to be nearly the same temperature as yesterday.

Today
High -- | Low -- °F
--% Chance of Precip.
Yesterday
High -- | Low -- °F
Precip. -- in
6:40 AM 8:50 PM
Waxing Crescent, 7% visible
Pressure 30.11 in
Visibility 10.0 miles
Clouds Scattered Clouds 2300 ft
Dew Point 54 °F
Humidity 68%
Rainfall 0.00 in
Snow Depth Not available.
UV 8 out of 12
Pollen 4.80 out of 12
Air Quality Not available.
Flu Activity Not available.
METAR KDVK 291555Z AUTO 34008KT 10SM SCT023 18/12 A3011 RMK AO2

More Conditions Fewer Conditions

Pressure 30.11 in
Visibility 10.0 miles
Clouds Scattered Clouds 2300 ft
Dew Point 54 °F
Humidity 68%
Rainfall 0.00 in
Snow Depth Not available.
UV 8 out of 12
Pollen 4.80 out of 12
Air Quality Not available.
Flu Activity Not available.
METAR KDVK 291555Z AUTO 34008KT 10SM SCT023 18/12 A3011 RMK AO2

More Conditions Fewer Conditions

10-Day Weather Forecast

Almanac

Astronomy

Jul. 29, 2014 Rise Set
Actual Time 6:40 AM EDT 8:50 PM EDT
Civil Twilight 6:11 AM EDT 9:19 PM EDT
Nautical Twilight 5:35 AM EDT 9:55 PM EDT
Astronomical Twilight 4:56 AM EDT 10:33 PM EDT
Moon 9:12 AM EDT 10:06 PM EDT
Length of Visible Light 15h 08m
Length of Day
14h 09m
Tomorrow will be 1m 45s shorter.
Waxing Crescent, 7% of the Moon is Illuminated
Today
Waxing Crescent
Aug 3
First Quarter
Aug 10
Full
Aug 17
Last Quarter
Aug 25
New

Today's Extremes

State Highs State Lows

Community

WunderPhotos

Upload Photos

1,738,773 photos uploaded!

Nearby

Snow Depth

Station Depth Elevation
No new snow has been reported.

Earthquake Activity

City Distance Mag. Time & Date
No recent earthquake activity has been reported nearby.
Minimum magnitude displayed is 2.5.

Coastal Water Temperatures

Place Temperature
No Stations Reporting

Nearby Weather Stations

Station Location Temp. Dew Point Humidity Wind Precip. Elev Updated Type
Berwick Drive, Danville, KY 66.8 °F 58 °F 72% WSW  at  1.0 mph 0.00 in / hr 980 ft 12:05 PM EDT Normal
Rocky Fork, Lancaster, KY 66.9 °F 55 °F 65% WNW  at  1.9 mph 0.00 in / hr 804 ft 12:06 PM EDT Rapid Fire

Show More Stations Show Fewer Stations